Time;durP1;ratioP1;P1;durP2;ratioP2;P2;SDS_P1;SDS_P2;PMS_P1;PMS_P2;Temp;Humidity;BMP_temperature;BMP_pressure;BME280_temperature;BME280_humidity;BME280_pressure;Samples;Min_cycle;Max_cycle;Signal;HPM_P1;HPM_P2
2021/06/21 00:01:39;;;;;;;9.70;2.77;;;17.20;99.90;;;;;;5073024;28;20547;-69
2021/06/21 00:04:06;;;;;;;8.20;3.60;;;17.20;99.90;;;;;;5073563;28;20554;-69
2021/06/21 00:06:33;;;;;;;7.27;2.90;;;17.30;99.90;;;;;;5073314;28;20538;-69
2021/06/21 00:09:01;;;;;;;7.87;3.30;;;17.30;99.90;;;;;;5072775;28;20442;-68
2021/06/21 00:11:28;;;;;;;9.20;2.80;;;17.30;99.90;;;;;;5073291;28;20435;-70
2021/06/21 00:13:55;;;;;;;10.13;2.67;;;17.30;99.90;;;;;;5073150;28;20549;-69
2021/06/21 00:16:22;;;;;;;10.10;2.87;;;17.30;99.90;;;;;;5072699;28;20446;-68
2021/06/21 00:18:49;;;;;;;7.63;3.40;;;17.30;99.90;;;;;;5072992;28;20470;-68
2021/06/21 00:21:16;;;;;;;7.17;2.40;;;17.30;99.90;;;;;;5071806;28;20562;-68
2021/06/21 00:23:43;;;;;;;8.00;2.80;;;17.30;99.90;;;;;;5072752;28;20495;-68
2021/06/21 00:26:11;;;;;;;6.00;2.73;;;17.30;99.90;;;;;;5072613;28;20457;-68
2021/06/21 00:28:38;;;;;;;9.83;3.43;;;17.30;99.90;;;;;;5072633;28;20530;-69
2021/06/21 00:31:05;;;;;;;9.57;3.17;;;17.30;99.90;;;;;;5072141;28;20447;-70
2021/06/21 00:33:32;;;;;;;6.80;3.20;;;17.30;99.90;;;;;;5072575;28;20998;-69
2021/06/21 00:35:59;;;;;;;8.63;2.97;;;17.30;99.90;;;;;;5072251;28;21023;-68
2021/06/21 00:38:26;;;;;;;7.60;2.67;;;17.30;99.90;;;;;;5072581;28;20542;-70
2021/06/21 00:40:53;;;;;;;8.13;3.03;;;17.40;99.90;;;;;;5070966;28;21194;-69
2021/06/21 00:43:21;;;;;;;7.00;2.80;;;17.40;99.90;;;;;;5072193;28;21076;-68
2021/06/21 00:45:49;;;;;;;10.83;3.63;;;17.40;99.90;;;;;;5072881;28;20477;-70
2021/06/21 00:48:16;;;;;;;6.93;2.90;;;17.40;99.90;;;;;;5072081;28;20443;-69
2021/06/21 00:50:43;;;;;;;6.50;2.70;;;17.40;99.90;;;;;;5071329;28;20526;-69
2021/06/21 00:53:10;;;;;;;7.93;3.00;;;17.40;99.90;;;;;;5072203;28;20477;-69
2021/06/21 00:55:37;;;;;;;9.17;3.00;;;17.30;99.90;;;;;;5072069;28;20449;-69
2021/06/21 00:58:04;;;;;;;8.03;3.00;;;17.30;99.90;;;;;;5071897;28;20816;-70
2021/06/21 01:00:32;;;;;;;7.40;2.90;;;17.30;99.90;;;;;;5071470;28;20878;-69
2021/06/21 01:03:03;;;;;;;11.30;3.00;;;17.30;99.90;;;;;;5072007;28;21123;-69
2021/06/21 01:05:34;;;;;;;8.53;3.90;;;17.30;99.90;;;;;;5072085;28;20447;-69
2021/06/21 01:08:02;;;;;;;8.97;3.40;;;17.30;99.90;;;;;;5071728;28;20550;-68
2021/06/21 01:10:30;;;;;;;7.57;2.90;;;17.40;99.90;;;;;;5071359;28;20450;-68
2021/06/21 01:13:24;;;;;;;6.90;2.80;;;17.40;99.90;;;;;;5072081;28;20552;-69
2021/06/21 01:16:02;;;;;;;6.50;2.87;;;17.40;99.90;;;;;;5071942;28;20534;-68
2021/06/21 01:18:34;;;;;;;7.10;2.90;;;17.40;99.90;;;;;;5071870;28;20862;-69
2021/06/21 01:21:32;;;;;;;9.00;3.00;;;17.40;99.90;;;;;;5071137;28;20478;-68
2021/06/21 01:24:42;;;;;;;6.97;2.90;;;17.40;99.90;;;;;;5071590;28;20549;-69
2021/06/21 01:27:20;;;;;;;9.53;3.47;;;17.40;99.90;;;;;;5071371;28;20450;-70
2021/06/21 01:29:55;;;;;;;6.93;2.60;;;17.40;99.90;;;;;;5071663;28;20522;-68
2021/06/21 01:32:43;;;;;;;6.93;3.10;;;17.40;99.90;;;;;;5072414;28;20431;-69
2021/06/21 01:35:19;;;;;;;9.73;3.00;;;17.40;99.90;;;;;;5072912;28;20824;-68
2021/06/21 01:37:47;;;;;;;11.17;3.50;;;17.30;99.90;;;;;;5071835;28;20453;-68
2021/06/21 01:40:17;;;;;;;6.93;3.20;;;17.40;99.90;;;;;;5071351;28;20483;-68
2021/06/21 01:42:52;;;;;;;9.37;3.30;;;17.30;99.90;;;;;;5071730;28;20563;-68
2021/06/21 01:45:19;;;;;;;6.50;2.77;;;17.30;99.90;;;;;;5072059;28;20442;-69
2021/06/21 01:47:50;;;;;;;11.80;5.00;;;17.30;99.90;;;;;;5071517;28;20489;-68
2021/06/21 01:50:20;;;;;;;5.87;3.13;;;17.20;99.90;;;;;;5071354;28;20443;-68
2021/06/21 01:52:51;;;;;;;6.10;2.73;;;17.20;99.90;;;;;;5071209;28;20547;-69
2021/06/21 01:55:24;;;;;;;11.30;3.87;;;17.20;99.90;;;;;;5071370;28;20510;-67
2021/06/21 01:57:54;;;;;;;5.30;3.10;;;17.30;99.90;;;;;;5071032;28;20510;-68
2021/06/21 02:00:22;;;;;;;6.97;3.47;;;17.30;99.90;;;;;;5070127;28;20486;-67
2021/06/21 02:02:53;;;;;;;5.67;3.07;;;17.30;99.90;;;;;;5071361;28;20495;-67
2021/06/21 02:05:20;;;;;;;10.70;3.20;;;17.30;99.90;;;;;;5070998;28;20533;-69
2021/06/21 02:07:51;;;;;;;10.70;3.80;;;17.30;99.90;;;;;;5070825;28;20457;-67
2021/06/21 02:10:20;;;;;;;6.87;3.50;;;17.30;99.90;;;;;;5069904;28;20443;-67
2021/06/21 02:12:48;;;;;;;8.73;3.87;;;17.20;99.90;;;;;;5070681;28;20497;-67
2021/06/21 02:15:16;;;;;;;12.10;4.07;;;17.30;99.90;;;;;;5070820;28;21037;-67
2021/06/21 02:17:44;;;;;;;12.97;4.93;;;17.20;99.90;;;;;;5070577;28;20531;-66
2021/06/21 02:20:16;;;;;;;8.37;3.50;;;17.20;99.90;;;;;;5069662;28;21017;-67
2021/06/21 02:22:47;;;;;;;7.73;3.10;;;17.20;99.90;;;;;;5070539;28;20976;-67
2021/06/21 02:25:15;;;;;;;11.17;3.97;;;17.20;99.90;;;;;;5070130;28;20454;-67
2021/06/21 02:27:47;;;;;;;9.63;3.23;;;17.10;99.90;;;;;;5070210;28;20443;-68
2021/06/21 02:30:16;;;;;;;6.30;3.00;;;17.10;99.90;;;;;;5069785;28;20451;-67
2021/06/21 02:32:45;;;;;;;13.20;3.67;;;17.10;99.90;;;;;;5070480;28;20549;-66
2021/06/21 02:35:17;;;;;;;9.00;3.60;;;17.10;99.90;;;;;;5070218;28;20448;-67
2021/06/21 02:37:44;;;;;;;10.77;4.07;;;17.10;99.90;;;;;;5070382;28;20443;-67
2021/06/21 02:40:15;;;;;;;9.03;3.90;;;17.10;99.90;;;;;;5070915;28;20447;-67
2021/06/21 02:42:43;;;;;;;8.03;3.23;;;17.00;99.90;;;;;;5072611;28;20477;-67
2021/06/21 02:45:10;;;;;;;12.90;4.00;;;17.10;99.90;;;;;;5072317;28;20453;-67
2021/06/21 02:47:39;;;;;;;7.20;3.50;;;17.00;99.90;;;;;;5071373;28;20447;-67
2021/06/21 02:50:07;;;;;;;7.70;3.70;;;17.00;99.90;;;;;;5069248;28;20452;-68
2021/06/21 02:52:48;;;;;;;11.67;4.20;;;16.90;99.90;;;;;;5070380;28;20482;-67
2021/06/21 02:55:21;;;;;;;8.83;3.57;;;16.90;99.90;;;;;;5069907;28;20461;-68
2021/06/21 02:57:59;;;;;;;9.80;3.83;;;16.90;99.90;;;;;;5069781;28;21063;-68
2021/06/21 03:00:28;;;;;;;5.73;3.20;;;17.00;99.90;;;;;;5069289;28;20876;-67
2021/06/21 03:02:56;;;;;;;8.60;3.60;;;17.00;99.90;;;;;;5069940;28;20475;-68
2021/06/21 03:05:23;;;;;;;11.90;3.77;;;17.10;99.90;;;;;;5070306;28;20466;-68
2021/06/21 03:07:53;;;;;;;11.73;4.00;;;17.20;99.90;;;;;;5069837;28;20531;-67
2021/06/21 03:10:21;;;;;;;8.20;4.03;;;17.20;99.90;;;;;;5069224;28;20443;-67
2021/06/21 03:12:49;;;;;;;10.80;4.20;;;17.20;99.90;;;;;;5069787;28;20471;-67
2021/06/21 03:15:20;;;;;;;7.90;3.37;;;17.30;99.90;;;;;;5069637;28;20977;-67
2021/06/21 03:17:49;;;;;;;11.93;4.60;;;17.20;99.90;;;;;;5069639;28;20534;-67
2021/06/21 03:20:19;;;;;;;11.33;4.50;;;17.30;99.90;;;;;;5069212;28;20470;-67
2021/06/21 03:22:47;;;;;;;6.33;3.63;;;17.30;99.90;;;;;;5069988;28;20821;-68
2021/06/21 03:25:16;;;;;;;10.27;3.90;;;17.20;99.90;;;;;;5069884;28;20447;-68
2021/06/21 03:27:43;;;;;;;8.83;3.93;;;17.20;99.90;;;;;;5069497;28;20439;-67
2021/06/21 03:30:14;;;;;;;10.63;3.77;;;17.20;99.90;;;;;;5069399;28;20546;-68
2021/06/21 03:32:43;;;;;;;14.47;3.97;;;17.20;99.90;;;;;;5070014;28;20446;-67
2021/06/21 03:35:12;;;;;;;10.67;3.83;;;17.20;99.90;;;;;;5069949;28;20455;-66
2021/06/21 03:37:40;;;;;;;5.83;3.27;;;17.20;99.90;;;;;;5069501;28;20955;-68
2021/06/21 03:40:09;;;;;;;10.50;3.43;;;17.20;99.90;;;;;;5068724;28;20535;-67
2021/06/21 03:42:38;;;;;;;5.67;3.03;;;17.20;99.90;;;;;;5069401;28;20483;-69
2021/06/21 03:45:06;;;;;;;8.13;3.63;;;17.10;99.90;;;;;;5069535;28;20462;-67
2021/06/21 03:47:34;;;;;;;8.77;3.27;;;17.10;99.90;;;;;;5069261;28;20858;-67
2021/06/21 03:50:01;;;;;;;9.70;3.80;;;17.10;99.90;;;;;;5068531;28;20533;-68
2021/06/21 03:52:28;;;;;;;7.70;3.33;;;17.10;99.90;;;;;;5069625;28;20522;-69
2021/06/21 03:55:07;;;;;;;8.23;3.40;;;17.20;99.90;;;;;;5069454;28;20472;-68
2021/06/21 03:57:35;;;;;;;9.33;3.73;;;17.20;99.90;;;;;;5069856;28;20454;-68
2021/06/21 04:00:06;;;;;;;7.50;3.17;;;17.30;99.90;;;;;;5068466;28;20531;-67
2021/06/21 04:02:33;;;;;;;7.93;3.20;;;17.40;99.90;;;;;;5069281;28;20489;-68
2021/06/21 04:05:00;;;;;;;12.93;4.33;;;17.40;99.90;;;;;;5069409;28;20475;-68
2021/06/21 04:07:27;;;;;;;9.50;3.20;;;17.50;99.90;;;;;;5068887;28;20449;-68
2021/06/21 04:09:54;;;;;;;10.10;2.80;;;17.50;99.90;;;;;;5068264;28;20869;-68
2021/06/21 04:12:23;;;;;;;10.43;3.20;;;17.60;99.90;;;;;;5069163;28;20933;-69
2021/06/21 04:14:50;;;;;;;11.10;2.93;;;17.60;99.90;;;;;;5069807;28;21024;-70
2021/06/21 04:17:18;;;;;;;8.07;3.30;;;17.70;99.90;;;;;;5072583;28;20496;-68
2021/06/21 04:19:45;;;;;;;12.00;2.90;;;17.70;99.90;;;;;;5071696;28;20569;-68
2021/06/21 04:22:12;;;;;;;9.60;3.10;;;17.70;99.90;;;;;;5072672;28;20573;-69
2021/06/21 04:24:39;;;;;;;8.27;3.03;;;17.80;99.90;;;;;;5072867;28;20466;-70
2021/06/21 04:27:07;;;;;;;11.40;3.60;;;17.80;99.90;;;;;;5072378;28;20474;-69
2021/06/21 04:29:33;;;;;;;7.97;2.87;;;17.90;99.90;;;;;;5071990;28;20522;-68
2021/06/21 04:32:00;;;;;;;10.07;2.20;;;17.90;99.90;;;;;;5072253;28;20451;-69
2021/06/21 04:34:28;;;;;;;10.90;3.10;;;17.90;99.90;;;;;;5072194;28;20504;-69
2021/06/21 04:36:55;;;;;;;13.17;3.63;;;18.00;99.90;;;;;;5071983;28;20447;-68
2021/06/21 04:39:22;;;;;;;8.23;2.80;;;18.00;99.90;;;;;;5071684;28;20539;-67
2021/06/21 04:41:49;;;;;;;9.00;2.60;;;18.00;99.90;;;;;;5072119;28;20517;-66
2021/06/21 04:44:16;;;;;;;13.27;3.53;;;18.00;99.90;;;;;;5071925;28;20475;-67
2021/06/21 04:46:43;;;;;;;9.40;2.53;;;18.00;99.90;;;;;;5071542;28;21152;-67
2021/06/21 04:49:13;;;;;;;8.37;2.57;;;17.90;99.90;;;;;;5071385;28;20450;-67
2021/06/21 04:51:42;;;;;;;9.67;2.80;;;17.80;99.90;;;;;;5072092;28;20455;-70
2021/06/21 04:54:10;;;;;;;7.93;2.73;;;17.70;99.90;;;;;;5071949;28;20458;-65
2021/06/21 04:56:37;;;;;;;5.30;2.23;;;17.70;99.90;;;;;;5071379;28;20496;-66
2021/06/21 04:59:05;;;;;;;8.50;3.20;;;17.60;99.90;;;;;;5069612;28;20451;-68
2021/06/21 05:01:32;;;;;;;11.90;3.13;;;17.50;99.90;;;;;;5063195;28;20602;-68
2021/06/21 05:04:00;;;;;;;5.13;2.50;;;17.50;99.90;;;;;;5065309;28;20512;-68
2021/06/21 05:06:28;;;;;;;9.00;2.73;;;17.40;99.90;;;;;;5071978;28;20928;-68
2021/06/21 05:08:57;;;;;;;5.57;3.63;;;17.50;99.90;;;;;;5071275;28;20451;-66
2021/06/21 05:11:24;;;;;;;6.90;2.83;;;17.50;99.90;;;;;;5069342;28;20955;-67
2021/06/21 05:13:50;;;;;;;6.87;2.40;;;17.60;99.90;;;;;;5071411;28;20559;-68
2021/06/21 05:16:17;;;;;;;6.60;2.47;;;17.60;99.90;;;;;;5070312;28;20451;-67
2021/06/21 05:18:44;;;;;;;9.37;3.70;;;17.70;99.90;;;;;;5064181;28;20449;-67
2021/06/21 05:21:11;;;;;;;8.27;3.20;;;17.80;99.90;;;;;;5051010;28;20500;-68
2021/06/21 05:23:39;;;;;;;8.60;2.90;;;17.90;99.90;;;;;;5069843;28;20494;-68
2021/06/21 05:26:07;;;;;;;7.73;2.60;;;17.90;99.90;;;;;;5069742;28;20664;-68
2021/06/21 05:28:34;;;;;;;8.90;2.77;;;18.00;99.90;;;;;;5069836;28;20450;-67
2021/06/21 05:31:01;;;;;;;7.90;2.50;;;18.10;99.90;;;;;;5070637;28;20487;-68
2021/06/21 05:33:28;;;;;;;6.73;3.30;;;18.10;99.90;;;;;;5071505;28;20470;-68
2021/06/21 05:35:55;;;;;;;6.60;3.10;;;18.20;99.90;;;;;;5071239;28;20461;-68
2021/06/21 05:38:21;;;;;;;5.83;2.60;;;18.30;99.90;;;;;;5071470;28;20537;-68
2021/06/21 05:40:48;;;;;;;9.70;3.13;;;18.40;99.90;;;;;;5070179;28;21020;-68
2021/06/21 05:43:16;;;;;;;8.57;2.90;;;18.50;99.90;;;;;;5070549;28;21450;-68
2021/06/21 05:45:43;;;;;;;6.53;2.30;;;18.50;99.90;;;;;;5070753;28;20447;-67
2021/06/21 05:48:11;;;;;;;9.40;4.43;;;18.60;99.90;;;;;;5070619;28;20473;-68
2021/06/21 05:50:38;;;;;;;8.13;2.67;;;18.70;99.90;;;;;;5069872;28;20453;-67
2021/06/21 05:53:05;;;;;;;7.07;2.47;;;18.70;99.90;;;;;;5070950;28;20467;-68
2021/06/21 05:55:33;;;;;;;7.43;2.20;;;18.80;99.90;;;;;;5070571;28;20467;-68
2021/06/21 05:58:01;;;;;;;8.03;2.50;;;18.90;99.90;;;;;;5070539;28;20951;-68
2021/06/21 06:00:29;;;;;;;8.80;3.07;;;19.00;99.90;;;;;;5069935;28;20461;-68
2021/06/21 06:02:56;;;;;;;8.73;2.70;;;19.00;99.90;;;;;;5070425;28;20589;-67
2021/06/21 06:05:23;;;;;;;6.43;2.30;;;19.10;99.90;;;;;;5070647;28;20885;-68
2021/06/21 06:07:50;;;;;;;9.77;2.50;;;19.20;99.90;;;;;;5070402;28;20493;-68
2021/06/21 06:10:17;;;;;;;8.37;2.43;;;19.40;99.90;;;;;;5069542;28;20473;-69
2021/06/21 06:12:44;;;;;;;7.27;2.60;;;19.40;99.90;;;;;;5070670;28;20631;-69
2021/06/21 06:15:13;;;;;;;3.90;1.90;;;19.40;99.90;;;;;;5070645;28;20800;-68
2021/06/21 06:17:41;;;;;;;8.83;2.73;;;19.30;99.90;;;;;;5070140;28;20485;-69
2021/06/21 06:20:09;;;;;;;6.63;2.90;;;19.30;99.90;;;;;;5069683;28;20494;-69
2021/06/21 06:22:36;;;;;;;8.23;2.40;;;19.30;99.90;;;;;;5070191;28;20509;-69
2021/06/21 06:25:04;;;;;;;6.47;2.60;;;19.40;99.90;;;;;;5070256;28;20457;-69
2021/06/21 06:27:31;;;;;;;8.50;3.17;;;19.50;99.90;;;;;;5069915;28;20437;-66
2021/06/21 06:29:58;;;;;;;6.30;2.37;;;19.60;99.90;;;;;;5069594;28;20470;-66
2021/06/21 06:32:25;;;;;;;6.83;2.50;;;19.80;99.90;;;;;;5070286;28;20526;-69
2021/06/21 06:34:54;;;;;;;4.87;2.00;;;19.90;99.90;;;;;;5070089;28;20446;-68
2021/06/21 06:37:21;;;;;;;5.93;2.17;;;20.00;99.90;;;;;;5069455;28;20448;-69
2021/06/21 06:39:48;;;;;;;5.90;2.07;;;20.10;99.90;;;;;;5069134;28;20447;-68
2021/06/21 06:42:15;;;;;;;5.67;2.13;;;20.20;99.90;;;;;;5069889;28;20487;-68
2021/06/21 06:44:42;;;;;;;5.20;2.07;;;20.20;99.90;;;;;;5070057;28;20909;-68
2021/06/21 06:47:09;;;;;;;5.40;2.23;;;20.30;99.90;;;;;;5069604;28;20450;-68
2021/06/21 06:49:36;;;;;;;7.77;1.80;;;20.40;99.90;;;;;;5069026;28;20541;-68
2021/06/21 06:52:04;;;;;;;4.93;2.27;;;20.50;99.90;;;;;;5070078;28;20440;-69
2021/06/21 06:54:44;;;;;;;5.83;2.80;;;20.50;99.90;;;;;;5070127;28;20502;-69
2021/06/21 06:57:10;;;;;;;9.80;2.00;;;20.60;99.90;;;;;;5069659;28;20469;-69
2021/06/21 06:59:39;;;;;;;6.27;3.07;;;20.60;99.90;;;;;;5069783;28;20438;-68
2021/06/21 07:02:07;;;;;;;4.10;1.90;;;20.70;99.90;;;;;;5070253;28;20301;-69
2021/06/21 07:04:37;;;;;;;5.33;2.17;;;20.70;99.90;;;;;;5070467;28;20477;-69
2021/06/21 07:07:06;;;;;;;9.83;2.00;;;20.90;99.90;;;;;;5069965;28;20524;-69
2021/06/21 07:09:34;;;;;;;8.63;2.10;;;21.00;99.90;;;;;;5069735;28;20534;-69
2021/06/21 07:12:02;;;;;;;7.23;2.60;;;21.10;99.90;;;;;;5070171;28;20837;-69
2021/06/21 07:14:29;;;;;;;7.00;1.87;;;21.20;99.90;;;;;;5070500;28;20546;-69
2021/06/21 07:16:56;;;;;;;7.60;2.60;;;21.20;99.90;;;;;;5070371;28;20529;-69
2021/06/21 07:19:23;;;;;;;9.73;2.57;;;21.30;99.90;;;;;;5071635;28;20558;-69
2021/06/21 07:21:50;;;;;;;5.10;1.60;;;21.40;99.90;;;;;;5072304;28;20598;-68
2021/06/21 07:24:19;;;;;;;5.40;2.07;;;21.60;99.90;;;;;;5070250;28;20505;-68
2021/06/21 07:26:46;;;;;;;4.40;1.67;;;21.80;99.90;;;;;;5069480;28;20451;-69
2021/06/21 07:29:13;;;;;;;4.63;1.87;;;21.90;99.90;;;;;;5069270;28;20521;-69
2021/06/21 07:31:40;;;;;;;6.90;2.57;;;22.10;99.90;;;;;;5069918;28;20534;-68
2021/06/21 07:34:08;;;;;;;4.93;1.97;;;22.30;99.90;;;;;;5069605;28;20470;-69
2021/06/21 07:36:35;;;;;;;7.40;1.80;;;22.30;99.90;;;;;;5069598;28;20533;-69
2021/06/21 07:39:03;;;;;;;6.40;2.03;;;22.40;99.90;;;;;;5069093;28;20453;-70
2021/06/21 07:41:31;;;;;;;7.00;2.40;;;22.50;99.90;;;;;;5069812;28;20529;-69
2021/06/21 07:43:58;;;;;;;5.77;1.53;;;22.60;99.90;;;;;;5069515;28;20966;-70
2021/06/21 07:46:26;;;;;;;3.80;1.57;;;22.70;99.90;;;;;;5069810;28;20451;-70
2021/06/21 07:48:53;;;;;;;8.70;2.00;;;22.70;99.90;;;;;;5070196;28;20447;-69
2021/06/21 07:51:20;;;;;;;5.57;1.90;;;22.80;99.90;;;;;;5071902;28;20867;-69
2021/06/21 07:53:50;;;;;;;4.07;1.70;;;22.90;99.90;;;;;;5073513;28;20465;-69
2021/06/21 07:56:18;;;;;;;8.10;2.30;;;23.00;99.90;;;;;;5073046;28;20490;-69
2021/06/21 07:58:46;;;;;;;6.83;1.80;;;23.10;99.90;;;;;;5073415;28;20550;-68
2021/06/21 08:01:13;;;;;;;3.60;2.07;;;23.20;99.90;;;;;;5072300;28;20482;-69
2021/06/21 08:03:40;;;;;;;3.97;1.50;;;23.30;99.90;;;;;;5072887;28;20493;-70
2021/06/21 08:06:10;;;;;;;8.00;2.00;;;23.40;99.90;;;;;;5072751;28;20443;-68
2021/06/21 08:08:38;;;;;;;5.00;1.70;;;23.50;99.90;;;;;;5073215;28;20481;-69
2021/06/21 08:11:05;;;;;;;9.03;1.97;;;23.40;99.90;;;;;;5072415;28;20546;-69
2021/06/21 08:13:32;;;;;;;5.30;1.70;;;23.30;99.90;;;;;;5073137;28;20490;-68
2021/06/21 08:16:00;;;;;;;5.20;1.53;;;23.40;99.90;;;;;;5072591;28;20438;-69
2021/06/21 08:18:27;;;;;;;5.17;1.80;;;23.30;99.90;;;;;;5072714;28;20965;-69
2021/06/21 08:20:54;;;;;;;6.13;1.87;;;23.50;99.90;;;;;;5072345;28;20530;-69
2021/06/21 08:23:21;;;;;;;5.47;1.70;;;23.50;99.90;;;;;;5073057;28;20554;-69
2021/06/21 08:25:48;;;;;;;5.23;1.87;;;23.60;99.90;;;;;;5072988;28;20485;-69
2021/06/21 08:28:16;;;;;;;4.80;1.93;;;23.80;99.90;;;;;;5072984;28;21018;-69
2021/06/21 08:30:43;;;;;;;3.93;1.90;;;23.90;99.90;;;;;;5072210;28;20883;-69
2021/06/21 08:33:12;;;;;;;7.23;1.77;;;24.00;99.90;;;;;;5072805;28;20556;-69
2021/06/21 08:35:38;;;;;;;6.27;1.67;;;24.40;99.90;;;;;;5072294;28;21020;-69
2021/06/21 08:38:06;;;;;;;4.93;1.80;;;24.50;99.90;;;;;;5071976;28;20451;-69
2021/06/21 08:40:34;;;;;;;4.40;1.87;;;24.70;99.90;;;;;;5071915;28;20442;-69
2021/06/21 08:43:01;;;;;;;4.87;2.10;;;24.60;99.90;;;;;;5072300;28;20490;-69
2021/06/21 08:45:30;;;;;;;7.17;2.77;;;24.40;99.90;;;;;;5072607;28;20451;-73
2021/06/21 08:47:58;;;;;;;4.77;1.67;;;24.40;99.90;;;;;;5072069;28;20449;-69
2021/06/21 08:50:26;;;;;;;4.43;1.77;;;24.50;99.90;;;;;;5072394;28;20552;-69
2021/06/21 08:52:53;;;;;;;6.83;2.00;;;24.60;99.90;;;;;;5072619;28;20469;-68
2021/06/21 08:55:20;;;;;;;5.03;1.87;;;24.80;99.90;;;;;;5072557;28;20956;-72
2021/06/21 08:57:48;;;;;;;5.30;1.60;;;24.70;99.90;;;;;;5072146;28;20546;-69
2021/06/21 09:00:18;;;;;;;4.70;2.40;;;24.60;99.90;;;;;;5071175;28;20451;-69
2021/06/21 09:02:47;;;;;;;6.03;1.70;;;24.50;99.90;;;;;;5072061;28;21007;-69
2021/06/21 09:05:14;;;;;;;4.80;1.77;;;24.40;99.90;;;;;;5071973;28;20527;-69
2021/06/21 09:07:43;;;;;;;3.93;1.60;;;24.40;99.90;;;;;;5071432;28;20451;-69
2021/06/21 09:10:23;;;;;;;3.90;1.63;;;24.50;99.90;;;;;;5070996;28;21244;-69
2021/06/21 09:13:05;;;;;;;4.03;1.93;;;24.80;99.90;;;;;;5071943;28;21046;-69
2021/06/21 09:15:32;;;;;;;6.23;1.63;;;24.80;99.90;;;;;;5071757;28;20995;-69
2021/06/21 09:18:00;;;;;;;5.80;1.60;;;25.10;99.90;;;;;;5071626;28;20450;-68
2021/06/21 09:20:28;;;;;;;3.20;1.33;;;25.20;99.90;;;;;;5071074;28;20858;-69
2021/06/21 09:23:01;;;;;;;5.93;1.70;;;25.20;99.90;;;;;;5071567;28;20486;-69
2021/06/21 09:25:28;;;;;;;3.90;2.00;;;25.20;99.90;;;;;;5071818;28;20447;-68
2021/06/21 09:27:57;;;;;;;5.00;1.80;;;25.30;99.90;;;;;;5071280;28;20504;-70
2021/06/21 09:30:25;;;;;;;3.43;1.60;;;25.50;99.90;;;;;;5071019;28;20597;-70
2021/06/21 09:32:53;;;;;;;3.80;1.67;;;25.80;99.90;;;;;;5071740;28;20533;-66
2021/06/21 09:35:41;;;;;;;4.37;1.70;;;26.00;99.90;;;;;;5071298;28;21047;-68
2021/06/21 09:38:16;;;;;;;4.47;2.20;;;25.80;99.90;;;;;;5070788;28;20832;-69
2021/06/21 09:40:46;;;;;;;4.27;1.70;;;25.90;99.90;;;;;;5070003;28;20534;-69
2021/06/21 09:43:26;;;;;;;3.67;2.00;;;26.00;99.90;;;;;;5070946;28;20548;-69
2021/06/21 09:46:18;;;;;;;5.13;2.00;;;26.10;99.90;;;;;;5067095;28;20542;-69
2021/06/21 09:48:47;;;;;;;3.53;1.67;;;26.10;99.90;;;;;;5050188;28;20463;-69
2021/06/21 09:51:30;;;;;;;5.90;2.00;;;26.10;99.90;;;;;;5069038;28;20450;-70
2021/06/21 09:54:04;;;;;;;4.30;1.37;;;26.10;99.90;;;;;;5069557;28;21128;-70
2021/06/21 09:56:33;;;;;;;4.60;1.80;;;26.40;99.90;;;;;;5069393;28;20459;-70
2021/06/21 09:59:00;;;;;;;3.57;1.77;;;26.80;99.90;;;;;;5069008;28;20501;-72
2021/06/21 10:01:31;;;;;;;5.70;1.73;;;27.10;99.90;;;;;;5069650;28;20469;-73
2021/06/21 10:03:58;;;;;;;6.00;2.10;;;27.80;99.70;;;;;;5069566;28;20487;-72
2021/06/21 10:06:37;;;;;;;5.17;1.63;;;28.20;99.60;;;;;;5069225;28;20451;-71
2021/06/21 10:09:06;;;;;;;4.70;1.60;;;27.80;97.50;;;;;;5068975;28;20447;-72
2021/06/21 10:11:35;;;;;;;5.93;2.03;;;27.40;98.30;;;;;;5069541;28;20447;-71
2021/06/21 10:14:04;;;;;;;4.07;1.70;;;28.00;98.80;;;;;;5068715;28;20474;-72
2021/06/21 10:16:31;;;;;;;5.37;1.60;;;29.10;96.70;;;;;;5069113;28;20533;-72
2021/06/21 10:18:58;;;;;;;3.20;1.50;;;29.10;96.30;;;;;;5068869;28;20443;-71
2021/06/21 10:21:27;;;;;;;7.73;1.73;;;28.70;96.20;;;;;;5068910;28;20543;-71
2021/06/21 10:23:54;;;;;;;6.80;2.27;;;28.70;96.10;;;;;;5069123;28;20489;-71
2021/06/21 10:26:23;;;;;;;3.93;1.67;;;29.00;97.40;;;;;;5068502;28;20447;-72
2021/06/21 10:28:51;;;;;;;4.57;2.07;;;29.80;95.40;;;;;;5069280;28;20465;-71
2021/06/21 10:31:20;;;;;;;2.77;1.50;;;30.40;93.10;;;;;;5068747;28;20445;-72
2021/06/21 10:33:49;;;;;;;3.70;1.60;;;30.10;93.90;;;;;;5069287;28;20467;-72
2021/06/21 10:36:16;;;;;;;5.20;2.30;;;29.80;94.60;;;;;;5069068;28;20447;-71
2021/06/21 10:38:43;;;;;;;7.37;1.90;;;30.20;91.50;;;;;;5069088;28;20478;-70
2021/06/21 10:41:11;;;;;;;5.03;1.70;;;30.10;92.00;;;;;;5068384;28;20490;-68
2021/06/21 10:43:50;;;;;;;4.97;1.80;;;30.20;91.90;;;;;;5068949;28;20487;-69
2021/06/21 10:46:29;;;;;;;6.63;1.80;;;30.70;93.10;;;;;;5068235;28;20439;-70
2021/06/21 10:49:32;;;;;;;3.60;1.77;;;31.20;90.40;;;;;;5068661;28;20474;-67
2021/06/21 10:51:58;;;;;;;2.70;1.40;;;30.90;92.80;;;;;;5062848;28;20965;-69
2021/06/21 10:54:27;;;;;;;3.80;1.73;;;30.50;90.30;;;;;;5068581;28;20541;-70
2021/06/21 10:56:55;;;;;;;3.53;1.50;;;30.00;90.90;;;;;;5068367;28;20896;-69
2021/06/21 10:59:24;;;;;;;3.83;1.80;;;29.30;91.30;;;;;;5066431;28;20853;-67
2021/06/21 11:01:53;;;;;;;3.90;1.80;;;29.00;92.20;;;;;;5068912;28;20470;-66
2021/06/21 11:04:45;;;;;;;4.43;2.00;;;28.80;92.00;;;;;;5068412;28;20598;-70
2021/06/21 11:07:14;;;;;;;4.70;1.83;;;28.90;92.20;;;;;;5068594;28;20453;-68
2021/06/21 11:09:42;;;;;;;6.53;2.60;;;29.10;91.40;;;;;;5068021;28;20543;-68
2021/06/21 11:12:35;;;;;;;4.13;1.50;;;28.90;91.00;;;;;;5068694;28;20478;-68
2021/06/21 11:15:14;;;;;;;5.57;2.63;;;28.60;91.50;;;;;;5057828;28;20508;-68
2021/06/21 11:17:56;;;;;;;3.93;1.83;;;29.20;92.50;;;;;;5068417;28;20530;-67
2021/06/21 11:20:34;;;;;;;3.87;1.73;;;29.60;91.40;;;;;;5068569;28;20496;-67
2021/06/21 11:23:03;;;;;;;3.87;1.80;;;29.40;90.90;;;;;;5069110;28;20486;-68
2021/06/21 11:25:31;;;;;;;6.50;1.90;;;28.90;91.60;;;;;;5075679;28;20451;-68
2021/06/21 11:28:00;;;;;;;5.13;2.40;;;28.40;92.40;;;;;;5075921;28;20447;-68
2021/06/21 11:30:37;;;;;;;5.80;1.87;;;28.20;93.60;;;;;;5075975;28;20841;-68
2021/06/21 11:33:09;;;;;;;4.10;2.17;;;28.60;93.50;;;;;;5076982;28;20463;-69
2021/06/21 11:36:01;;;;;;;4.80;1.80;;;29.00;92.30;;;;;;5077845;28;20477;-68
2021/06/21 11:38:37;;;;;;;3.63;1.80;;;29.40;91.00;;;;;;5076874;28;20451;-70
2021/06/21 11:41:30;;;;;;;4.70;1.80;;;30.30;88.40;;;;;;5076085;28;20470;-70
2021/06/21 11:44:00;;;;;;;6.50;1.80;;;30.30;88.10;;;;;;5029170;28;20586;-69
2021/06/21 11:46:40;;;;;;;4.60;1.70;;;30.30;88.30;;;;;;5076820;28;20447;-71
2021/06/21 11:49:08;;;;;;;2.63;1.40;;;31.10;86.70;;;;;;5075906;28;20465;-69
2021/06/21 11:51:36;;;;;;;3.03;1.63;;;31.50;84.10;;;;;;5048737;28;20538;-68
2021/06/21 11:54:04;;;;;;;3.57;2.30;;;32.20;82.50;;;;;;5054345;28;20569;-68
2021/06/21 11:56:31;;;;;;;4.97;2.00;;;32.40;78.90;;;;;;5053474;28;21120;-67
2021/06/21 11:58:59;;;;;;;4.33;2.20;;;31.80;81.10;;;;;;5053265;28;20538;-67
2021/06/21 12:01:28;;;;;;;4.40;2.00;;;32.10;84.50;;;;;;5070380;28;20535;-68
2021/06/21 12:03:59;;;;;;;3.73;1.90;;;33.00;81.80;;;;;;5083457;28;20473;-68
2021/06/21 12:06:27;;;;;;;4.23;1.83;;;32.50;84.70;;;;;;5092093;28;20430;-68
2021/06/21 12:08:54;;;;;;;4.40;2.20;;;32.00;84.80;;;;;;5092052;28;20803;-67
2021/06/21 12:11:23;;;;;;;5.03;1.47;;;32.10;84.90;;;;;;5092292;28;20434;-68
2021/06/21 12:13:58;;;;;;;4.60;2.50;;;32.40;83.20;;;;;;5094915;28;20531;-68
2021/06/21 12:16:27;;;;;;;5.13;1.93;;;32.40;82.30;;;;;;5093381;28;20610;-68
2021/06/21 12:18:57;;;;;;;5.20;2.20;;;32.40;82.30;;;;;;5095028;28;20532;-68
2021/06/21 12:21:33;;;;;;;5.70;2.87;;;32.70;81.90;;;;;;5093830;28;20480;-68
2021/06/21 12:24:14;;;;;;;6.03;3.13;;;32.70;80.70;;;;;;5094367;28;20572;-68
2021/06/21 12:26:42;;;;;;;5.77;2.67;;;32.00;80.80;;;;;;5095598;28;20481;-68
2021/06/21 12:29:22;;;;;;;5.37;2.93;;;31.80;84.40;;;;;;5094447;28;20456;-70
2021/06/21 12:31:58;;;;;;;5.83;2.73;;;31.80;83.90;;;;;;5096135;28;20433;-67
2021/06/21 12:34:55;;;;;;;4.80;2.23;;;31.70;80.70;;;;;;5096317;28;20556;-66
2021/06/21 12:37:28;;;;;;;6.37;2.90;;;31.20;83.30;;;;;;5072997;28;20439;-67
2021/06/21 12:39:57;;;;;;;6.60;2.37;;;31.10;84.00;;;;;;5081460;28;20447;-66
2021/06/21 12:42:26;;;;;;;4.03;2.40;;;30.90;84.10;;;;;;5083720;28;20878;-67
2021/06/21 12:44:53;;;;;;;6.00;2.80;;;31.00;85.10;;;;;;5088696;28;20561;-69
2021/06/21 12:47:23;;;;;;;3.63;2.07;;;31.60;84.40;;;;;;5083438;28;20934;-67
2021/06/21 12:49:53;;;;;;;5.40;2.37;;;31.70;81.60;;;;;;5080106;28;20533;-67
2021/06/21 12:52:22;;;;;;;4.30;2.07;;;31.40;80.40;;;;;;5090606;28;20442;-66
2021/06/21 12:55:04;;;;;;;5.60;2.30;;;30.90;82.30;;;;;;5090337;28;20890;-68
2021/06/21 12:57:44;;;;;;;6.80;2.60;;;30.70;83.50;;;;;;5081401;28;20451;-66
2021/06/21 13:00:12;;;;;;;4.63;2.33;;;31.10;86.50;;;;;;5068310;28;20443;-68